sensor_id;sensor_type;location;lat;lon;timestamp;P1;durP1;ratioP1;P2;durP2;ratioP2
29196;SDS011;62796;42.654;23.316;2023-09-08T00:00:32;13.02;;;10.25;;
29196;SDS011;62796;42.654;23.316;2023-09-08T00:02:57;14.70;;;10.52;;
29196;SDS011;62796;42.654;23.316;2023-09-08T00:05:22;16.83;;;10.63;;
29196;SDS011;62796;42.654;23.316;2023-09-08T00:07:48;15.82;;;11.45;;
29196;SDS011;62796;42.654;23.316;2023-09-08T00:10:13;18.00;;;10.90;;
29196;SDS011;62796;42.654;23.316;2023-09-08T00:12:39;14.90;;;10.90;;
29196;SDS011;62796;42.654;23.316;2023-09-08T00:15:05;14.88;;;10.23;;
29196;SDS011;62796;42.654;23.316;2023-09-08T00:17:31;11.25;;;9.52;;
29196;SDS011;62796;42.654;23.316;2023-09-08T00:19:57;14.40;;;8.75;;
29196;SDS011;62796;42.654;23.316;2023-09-08T00:22:23;17.20;;;9.07;;
29196;SDS011;62796;42.654;23.316;2023-09-08T00:24:48;10.38;;;8.35;;
29196;SDS011;62796;42.654;23.316;2023-09-08T00:27:14;11.15;;;8.35;;
29196;SDS011;62796;42.654;23.316;2023-09-08T00:29:39;10.43;;;8.20;;
29196;SDS011;62796;42.654;23.316;2023-09-08T00:32:05;12.48;;;7.78;;
29196;SDS011;62796;42.654;23.316;2023-09-08T00:34:30;10.60;;;8.05;;
29196;SDS011;62796;42.654;23.316;2023-09-08T00:36:56;10.02;;;7.97;;
29196;SDS011;62796;42.654;23.316;2023-09-08T00:39:21;9.32;;;7.60;;
29196;SDS011;62796;42.654;23.316;2023-09-08T00:41:47;9.32;;;7.28;;
29196;SDS011;62796;42.654;23.316;2023-09-08T00:44:12;10.65;;;7.40;;
29196;SDS011;62796;42.654;23.316;2023-09-08T00:46:38;10.05;;;6.78;;
29196;SDS011;62796;42.654;23.316;2023-09-08T00:49:04;11.25;;;7.10;;
29196;SDS011;62796;42.654;23.316;2023-09-08T00:51:30;9.48;;;7.15;;
29196;SDS011;62796;42.654;23.316;2023-09-08T00:53:56;12.05;;;6.25;;
29196;SDS011;62796;42.654;23.316;2023-09-08T00:56:22;8.73;;;6.13;;
29196;SDS011;62796;42.654;23.316;2023-09-08T00:58:48;8.45;;;5.70;;
29196;SDS011;62796;42.654;23.316;2023-09-08T01:01:14;9.50;;;5.82;;
29196;SDS011;62796;42.654;23.316;2023-09-08T01:03:39;7.90;;;6.13;;
29196;SDS011;62796;42.654;23.316;2023-09-08T01:06:05;10.45;;;5.60;;
29196;SDS011;62796;42.654;23.316;2023-09-08T01:08:31;10.50;;;6.05;;
29196;SDS011;62796;42.654;23.316;2023-09-08T01:10:56;7.63;;;5.57;;
29196;SDS011;62796;42.654;23.316;2023-09-08T01:13:22;8.90;;;5.65;;
29196;SDS011;62796;42.654;23.316;2023-09-08T01:15:48;12.48;;;5.75;;
29196;SDS011;62796;42.654;23.316;2023-09-08T01:18:14;9.80;;;5.45;;
29196;SDS011;62796;42.654;23.316;2023-09-08T01:26:07;10.77;;;6.22;;
29196;SDS011;62796;42.654;23.316;2023-09-08T01:28:34;10.05;;;6.43;;
29196;SDS011;62796;42.654;23.316;2023-09-08T01:31:01;9.80;;;5.95;;
29196;SDS011;62796;42.654;23.316;2023-09-08T01:33:26;7.05;;;5.90;;
29196;SDS011;62796;42.654;23.316;2023-09-08T01:35:52;7.82;;;5.65;;
29196;SDS011;62796;42.654;23.316;2023-09-08T01:38:18;7.78;;;5.63;;
29196;SDS011;62796;42.654;23.316;2023-09-08T01:40:45;7.38;;;6.13;;
29196;SDS011;62796;42.654;23.316;2023-09-08T01:43:11;8.05;;;5.95;;
29196;SDS011;62796;42.654;23.316;2023-09-08T01:45:36;10.80;;;5.40;;
29196;SDS011;62796;42.654;23.316;2023-09-08T01:48:01;7.88;;;5.70;;
29196;SDS011;62796;42.654;23.316;2023-09-08T01:50:27;7.75;;;5.75;;
29196;SDS011;62796;42.654;23.316;2023-09-08T01:52:52;11.15;;;6.00;;
29196;SDS011;62796;42.654;23.316;2023-09-08T01:55:18;7.40;;;5.15;;
29196;SDS011;62796;42.654;23.316;2023-09-08T01:57:43;8.52;;;6.07;;
29196;SDS011;62796;42.654;23.316;2023-09-08T02:00:09;8.50;;;5.53;;
29196;SDS011;62796;42.654;23.316;2023-09-08T02:02:36;8.98;;;6.13;;
29196;SDS011;62796;42.654;23.316;2023-09-08T02:05:01;9.18;;;5.90;;
29196;SDS011;62796;42.654;23.316;2023-09-08T02:07:26;9.52;;;6.45;;
29196;SDS011;62796;42.654;23.316;2023-09-08T02:09:52;9.35;;;6.30;;
29196;SDS011;62796;42.654;23.316;2023-09-08T02:12:17;11.43;;;6.18;;
29196;SDS011;62796;42.654;23.316;2023-09-08T02:14:43;10.70;;;6.78;;
29196;SDS011;62796;42.654;23.316;2023-09-08T02:17:08;7.70;;;6.18;;
29196;SDS011;62796;42.654;23.316;2023-09-08T02:19:33;9.75;;;6.57;;
29196;SDS011;62796;42.654;23.316;2023-09-08T02:21:59;8.82;;;6.22;;
29196;SDS011;62796;42.654;23.316;2023-09-08T02:24:24;9.35;;;6.78;;
29196;SDS011;62796;42.654;23.316;2023-09-08T02:26:49;13.90;;;6.10;;
29196;SDS011;62796;42.654;23.316;2023-09-08T02:29:15;9.40;;;6.63;;
29196;SDS011;62796;42.654;23.316;2023-09-08T02:31:40;10.57;;;6.55;;
29196;SDS011;62796;42.654;23.316;2023-09-08T02:34:06;12.07;;;6.40;;
29196;SDS011;62796;42.654;23.316;2023-09-08T02:36:31;9.88;;;6.88;;
29196;SDS011;62796;42.654;23.316;2023-09-08T02:38:57;11.80;;;6.68;;
29196;SDS011;62796;42.654;23.316;2023-09-08T02:41:22;8.52;;;6.20;;
29196;SDS011;62796;42.654;23.316;2023-09-08T02:43:48;9.63;;;7.10;;
29196;SDS011;62796;42.654;23.316;2023-09-08T02:46:14;8.45;;;6.57;;
29196;SDS011;62796;42.654;23.316;2023-09-08T02:48:40;11.70;;;6.93;;
29196;SDS011;62796;42.654;23.316;2023-09-08T02:51:06;10.13;;;7.57;;
29196;SDS011;62796;42.654;23.316;2023-09-08T02:53:32;12.00;;;7.82;;
29196;SDS011;62796;42.654;23.316;2023-09-08T02:55:57;14.88;;;8.35;;
29196;SDS011;62796;42.654;23.316;2023-09-08T02:58:24;12.98;;;8.38;;
29196;SDS011;62796;42.654;23.316;2023-09-08T03:00:49;12.10;;;8.05;;
29196;SDS011;62796;42.654;23.316;2023-09-08T03:03:18;15.55;;;8.48;;
29196;SDS011;62796;42.654;23.316;2023-09-08T03:05:44;9.98;;;8.18;;
29196;SDS011;62796;42.654;23.316;2023-09-08T03:08:10;16.13;;;9.02;;
29196;SDS011;62796;42.654;23.316;2023-09-08T03:10:35;15.07;;;9.00;;
29196;SDS011;62796;42.654;23.316;2023-09-08T03:13:01;8.73;;;7.75;;
29196;SDS011;62796;42.654;23.316;2023-09-08T03:15:27;14.40;;;8.70;;
29196;SDS011;62796;42.654;23.316;2023-09-08T03:17:56;13.05;;;8.65;;
29196;SDS011;62796;42.654;23.316;2023-09-08T03:20:25;13.60;;;8.88;;
29196;SDS011;62796;42.654;23.316;2023-09-08T03:22:51;13.10;;;8.23;;
29196;SDS011;62796;42.654;23.316;2023-09-08T03:25:17;9.90;;;8.30;;
29196;SDS011;62796;42.654;23.316;2023-09-08T03:27:43;11.65;;;8.75;;
29196;SDS011;62796;42.654;23.316;2023-09-08T03:30:08;12.85;;;8.93;;
29196;SDS011;62796;42.654;23.316;2023-09-08T03:32:34;9.48;;;8.40;;
29196;SDS011;62796;42.654;23.316;2023-09-08T03:35:00;15.10;;;9.30;;
29196;SDS011;62796;42.654;23.316;2023-09-08T03:37:26;13.80;;;9.18;;
29196;SDS011;62796;42.654;23.316;2023-09-08T03:39:51;16.10;;;9.23;;
29196;SDS011;62796;42.654;23.316;2023-09-08T03:42:17;14.45;;;8.95;;
29196;SDS011;62796;42.654;23.316;2023-09-08T03:44:43;15.40;;;9.50;;
29196;SDS011;62796;42.654;23.316;2023-09-08T03:47:08;13.48;;;9.20;;
29196;SDS011;62796;42.654;23.316;2023-09-08T03:49:34;12.85;;;9.40;;
29196;SDS011;62796;42.654;23.316;2023-09-08T03:51:59;15.23;;;10.23;;
29196;SDS011;62796;42.654;23.316;2023-09-08T03:54:24;14.38;;;10.18;;
29196;SDS011;62796;42.654;23.316;2023-09-08T03:56:50;11.68;;;8.70;;
29196;SDS011;62796;42.654;23.316;2023-09-08T03:59:15;10.52;;;8.15;;
29196;SDS011;62796;42.654;23.316;2023-09-08T04:01:40;10.45;;;8.23;;
29196;SDS011;62796;42.654;23.316;2023-09-08T04:04:06;11.80;;;8.07;;
29196;SDS011;62796;42.654;23.316;2023-09-08T04:06:32;14.55;;;8.05;;
29196;SDS011;62796;42.654;23.316;2023-09-08T04:08:57;12.48;;;8.30;;
29196;SDS011;62796;42.654;23.316;2023-09-08T04:11:22;10.27;;;8.27;;
29196;SDS011;62796;42.654;23.316;2023-09-08T04:13:48;12.80;;;8.48;;
29196;SDS011;62796;42.654;23.316;2023-09-08T04:16:13;13.80;;;8.95;;
29196;SDS011;62796;42.654;23.316;2023-09-08T04:18:38;10.23;;;8.27;;
29196;SDS011;62796;42.654;23.316;2023-09-08T04:21:06;13.07;;;8.73;;
29196;SDS011;62796;42.654;23.316;2023-09-08T04:23:32;11.50;;;9.35;;
29196;SDS011;62796;42.654;23.316;2023-09-08T04:25:57;13.27;;;9.05;;
29196;SDS011;62796;42.654;23.316;2023-09-08T04:28:23;14.15;;;9.30;;
29196;SDS011;62796;42.654;23.316;2023-09-08T04:30:48;13.98;;;9.65;;
29196;SDS011;62796;42.654;23.316;2023-09-08T04:33:13;13.02;;;9.90;;
29196;SDS011;62796;42.654;23.316;2023-09-08T04:35:39;12.68;;;9.65;;
29196;SDS011;62796;42.654;23.316;2023-09-08T04:38:04;15.38;;;9.80;;
29196;SDS011;62796;42.654;23.316;2023-09-08T04:40:30;13.68;;;10.45;;
29196;SDS011;62796;42.654;23.316;2023-09-08T04:42:55;17.40;;;10.60;;
29196;SDS011;62796;42.654;23.316;2023-09-08T04:45:20;19.05;;;9.80;;
29196;SDS011;62796;42.654;23.316;2023-09-08T04:47:46;18.42;;;10.20;;
29196;SDS011;62796;42.654;23.316;2023-09-08T04:50:12;15.60;;;9.73;;
29196;SDS011;62796;42.654;23.316;2023-09-08T04:52:37;15.43;;;9.85;;
29196;SDS011;62796;42.654;23.316;2023-09-08T04:55:02;14.15;;;9.73;;
29196;SDS011;62796;42.654;23.316;2023-09-08T04:57:28;15.82;;;9.40;;
29196;SDS011;62796;42.654;23.316;2023-09-08T04:59:54;14.95;;;9.30;;
29196;SDS011;62796;42.654;23.316;2023-09-08T05:02:19;13.68;;;8.93;;
29196;SDS011;62796;42.654;23.316;2023-09-08T05:04:44;13.20;;;9.02;;
29196;SDS011;62796;42.654;23.316;2023-09-08T05:07:10;13.05;;;8.45;;
29196;SDS011;62796;42.654;23.316;2023-09-08T05:09:37;12.23;;;8.18;;
29196;SDS011;62796;42.654;23.316;2023-09-08T05:12:03;15.68;;;7.88;;
29196;SDS011;62796;42.654;23.316;2023-09-08T05:14:28;12.27;;;8.13;;
29196;SDS011;62796;42.654;23.316;2023-09-08T05:16:54;13.65;;;7.60;;
29196;SDS011;62796;42.654;23.316;2023-09-08T05:19:21;15.07;;;7.60;;
29196;SDS011;62796;42.654;23.316;2023-09-08T05:21:49;10.80;;;7.38;;
29196;SDS011;62796;42.654;23.316;2023-09-08T05:24:15;13.63;;;7.60;;
29196;SDS011;62796;42.654;23.316;2023-09-08T05:26:41;10.20;;;7.22;;
29196;SDS011;62796;42.654;23.316;2023-09-08T05:29:06;14.50;;;7.40;;
29196;SDS011;62796;42.654;23.316;2023-09-08T05:31:31;12.25;;;6.80;;
29196;SDS011;62796;42.654;23.316;2023-09-08T05:33:57;12.23;;;7.28;;
29196;SDS011;62796;42.654;23.316;2023-09-08T05:36:22;15.18;;;7.60;;
29196;SDS011;62796;42.654;23.316;2023-09-08T05:38:48;10.00;;;7.20;;
29196;SDS011;62796;42.654;23.316;2023-09-08T05:41:13;12.88;;;7.20;;
29196;SDS011;62796;42.654;23.316;2023-09-08T05:43:38;13.70;;;6.88;;
29196;SDS011;62796;42.654;23.316;2023-09-08T05:46:04;12.70;;;6.82;;
29196;SDS011;62796;42.654;23.316;2023-09-08T05:48:29;12.82;;;6.70;;
29196;SDS011;62796;42.654;23.316;2023-09-08T05:50:55;10.70;;;5.97;;
29196;SDS011;62796;42.654;23.316;2023-09-08T05:53:20;8.38;;;5.32;;
29196;SDS011;62796;42.654;23.316;2023-09-08T05:55:45;11.55;;;6.10;;
29196;SDS011;62796;42.654;23.316;2023-09-08T05:58:11;12.43;;;6.70;;
29196;SDS011;62796;42.654;23.316;2023-09-08T06:00:36;12.32;;;6.25;;
29196;SDS011;62796;42.654;23.316;2023-09-08T06:03:02;10.52;;;6.10;;
29196;SDS011;62796;42.654;23.316;2023-09-08T06:05:27;9.80;;;6.20;;
29196;SDS011;62796;42.654;23.316;2023-09-08T06:07:53;9.32;;;5.70;;
29196;SDS011;62796;42.654;23.316;2023-09-08T06:10:18;11.65;;;5.65;;
29196;SDS011;62796;42.654;23.316;2023-09-08T06:12:44;15.55;;;6.22;;
29196;SDS011;62796;42.654;23.316;2023-09-08T06:15:09;10.00;;;6.28;;
29196;SDS011;62796;42.654;23.316;2023-09-08T06:17:35;9.65;;;5.65;;
29196;SDS011;62796;42.654;23.316;2023-09-08T06:20:01;8.07;;;5.05;;
29196;SDS011;62796;42.654;23.316;2023-09-08T06:22:26;10.23;;;5.38;;
29196;SDS011;62796;42.654;23.316;2023-09-08T06:24:52;8.27;;;4.82;;
29196;SDS011;62796;42.654;23.316;2023-09-08T06:27:17;8.15;;;5.35;;
29196;SDS011;62796;42.654;23.316;2023-09-08T06:29:42;7.88;;;5.18;;
29196;SDS011;62796;42.654;23.316;2023-09-08T06:32:08;9.20;;;4.80;;
29196;SDS011;62796;42.654;23.316;2023-09-08T06:34:34;12.93;;;5.03;;
29196;SDS011;62796;42.654;23.316;2023-09-08T06:37:00;6.65;;;4.78;;
29196;SDS011;62796;42.654;23.316;2023-09-08T06:39:27;9.90;;;4.60;;
29196;SDS011;62796;42.654;23.316;2023-09-08T06:41:52;7.85;;;5.15;;
29196;SDS011;62796;42.654;23.316;2023-09-08T06:44:18;11.20;;;4.80;;
29196;SDS011;62796;42.654;23.316;2023-09-08T06:46:45;10.00;;;4.75;;
29196;SDS011;62796;42.654;23.316;2023-09-08T06:49:10;7.03;;;4.07;;
29196;SDS011;62796;42.654;23.316;2023-09-08T06:51:36;5.85;;;4.10;;
29196;SDS011;62796;42.654;23.316;2023-09-08T06:54:02;8.32;;;4.40;;
29196;SDS011;62796;42.654;23.316;2023-09-08T06:56:28;7.43;;;4.20;;
29196;SDS011;62796;42.654;23.316;2023-09-08T06:58:53;7.78;;;4.60;;
29196;SDS011;62796;42.654;23.316;2023-09-08T07:01:18;6.80;;;4.65;;
29196;SDS011;62796;42.654;23.316;2023-09-08T07:03:44;7.72;;;4.45;;
29196;SDS011;62796;42.654;23.316;2023-09-08T07:06:10;9.85;;;4.95;;
29196;SDS011;62796;42.654;23.316;2023-09-08T07:08:35;8.50;;;4.53;;
29196;SDS011;62796;42.654;23.316;2023-09-08T07:11:01;8.77;;;4.60;;
29196;SDS011;62796;42.654;23.316;2023-09-08T07:13:26;9.10;;;4.18;;
29196;SDS011;62796;42.654;23.316;2023-09-08T07:15:52;8.23;;;4.40;;
29196;SDS011;62796;42.654;23.316;2023-09-08T07:18:17;7.72;;;4.32;;
29196;SDS011;62796;42.654;23.316;2023-09-08T07:20:46;8.00;;;4.10;;
29196;SDS011;62796;42.654;23.316;2023-09-08T07:23:16;7.72;;;4.65;;
29196;SDS011;62796;42.654;23.316;2023-09-08T07:25:46;7.35;;;3.97;;
29196;SDS011;62796;42.654;23.316;2023-09-08T07:28:13;4.65;;;4.10;;
29196;SDS011;62796;42.654;23.316;2023-09-08T07:30:39;6.47;;;4.20;;
29196;SDS011;62796;42.654;23.316;2023-09-08T07:33:05;8.65;;;4.70;;
29196;SDS011;62796;42.654;23.316;2023-09-08T07:35:31;10.32;;;4.35;;
29196;SDS011;62796;42.654;23.316;2023-09-08T07:37:56;5.82;;;3.95;;
29196;SDS011;62796;42.654;23.316;2023-09-08T07:40:21;6.70;;;4.20;;
29196;SDS011;62796;42.654;23.316;2023-09-08T07:42:47;9.35;;;3.90;;
29196;SDS011;62796;42.654;23.316;2023-09-08T07:45:12;5.38;;;4.18;;
29196;SDS011;62796;42.654;23.316;2023-09-08T07:47:38;7.72;;;4.32;;
29196;SDS011;62796;42.654;23.316;2023-09-08T07:50:16;8.48;;;4.25;;
29196;SDS011;62796;42.654;23.316;2023-09-08T07:52:43;6.65;;;4.30;;
29196;SDS011;62796;42.654;23.316;2023-09-08T07:55:08;8.40;;;4.13;;
29196;SDS011;62796;42.654;23.316;2023-09-08T07:57:34;6.32;;;4.10;;
29196;SDS011;62796;42.654;23.316;2023-09-08T07:59:59;6.03;;;4.50;;
29196;SDS011;62796;42.654;23.316;2023-09-08T08:02:24;11.23;;;4.15;;
29196;SDS011;62796;42.654;23.316;2023-09-08T08:04:50;7.38;;;4.13;;
29196;SDS011;62796;42.654;23.316;2023-09-08T08:07:15;10.15;;;4.28;;
29196;SDS011;62796;42.654;23.316;2023-09-08T08:09:41;5.72;;;3.97;;
29196;SDS011;62796;42.654;23.316;2023-09-08T08:12:06;5.63;;;4.05;;
29196;SDS011;62796;42.654;23.316;2023-09-08T08:14:31;11.80;;;4.18;;
29196;SDS011;62796;42.654;23.316;2023-09-08T08:16:57;12.38;;;4.25;;
29196;SDS011;62796;42.654;23.316;2023-09-08T08:19:22;6.25;;;4.32;;
29196;SDS011;62796;42.654;23.316;2023-09-08T08:21:48;7.90;;;3.80;;
29196;SDS011;62796;42.654;23.316;2023-09-08T08:24:13;6.28;;;3.90;;
29196;SDS011;62796;42.654;23.316;2023-09-08T08:26:38;8.40;;;4.15;;
29196;SDS011;62796;42.654;23.316;2023-09-08T08:29:04;6.05;;;3.83;;
29196;SDS011;62796;42.654;23.316;2023-09-08T08:31:29;4.78;;;3.85;;
29196;SDS011;62796;42.654;23.316;2023-09-08T08:33:55;12.75;;;4.78;;
29196;SDS011;62796;42.654;23.316;2023-09-08T08:36:20;9.85;;;4.10;;
29196;SDS011;62796;42.654;23.316;2023-09-08T08:38:45;8.18;;;4.38;;
29196;SDS011;62796;42.654;23.316;2023-09-08T08:41:11;8.07;;;4.05;;
29196;SDS011;62796;42.654;23.316;2023-09-08T08:43:36;8.55;;;3.75;;
29196;SDS011;62796;42.654;23.316;2023-09-08T08:46:02;8.20;;;4.00;;
29196;SDS011;62796;42.654;23.316;2023-09-08T08:48:29;10.77;;;4.28;;
29196;SDS011;62796;42.654;23.316;2023-09-08T08:50:56;8.60;;;3.47;;
29196;SDS011;62796;42.654;23.316;2023-09-08T08:53:23;12.77;;;4.30;;
29196;SDS011;62796;42.654;23.316;2023-09-08T08:55:49;6.10;;;3.38;;
29196;SDS011;62796;42.654;23.316;2023-09-08T08:58:18;10.45;;;3.85;;
29196;SDS011;62796;42.654;23.316;2023-09-08T09:00:49;5.90;;;4.15;;
29196;SDS011;62796;42.654;23.316;2023-09-08T09:03:18;11.20;;;3.80;;
29196;SDS011;62796;42.654;23.316;2023-09-08T09:05:44;6.85;;;3.78;;
29196;SDS011;62796;42.654;23.316;2023-09-08T09:08:10;6.43;;;3.92;;
29196;SDS011;62796;42.654;23.316;2023-09-08T09:10:37;12.23;;;4.00;;
29196;SDS011;62796;42.654;23.316;2023-09-08T09:13:02;8.70;;;3.60;;
29196;SDS011;62796;42.654;23.316;2023-09-08T09:15:28;6.80;;;3.75;;
29196;SDS011;62796;42.654;23.316;2023-09-08T09:18:04;4.57;;;3.65;;
29196;SDS011;62796;42.654;23.316;2023-09-08T09:20:31;5.97;;;3.80;;
29196;SDS011;62796;42.654;23.316;2023-09-08T09:22:57;9.75;;;3.90;;
29196;SDS011;62796;42.654;23.316;2023-09-08T09:27:53;6.25;;;4.20;;
29196;SDS011;62796;42.654;23.316;2023-09-08T09:30:20;7.32;;;3.80;;
29196;SDS011;62796;42.654;23.316;2023-09-08T09:32:46;7.38;;;4.25;;
29196;SDS011;62796;42.654;23.316;2023-09-08T09:35:14;7.38;;;3.70;;
29196;SDS011;62796;42.654;23.316;2023-09-08T09:37:40;8.55;;;4.07;;
29196;SDS011;62796;42.654;23.316;2023-09-08T09:40:06;6.15;;;4.30;;
29196;SDS011;62796;42.654;23.316;2023-09-08T09:42:32;6.55;;;4.45;;
29196;SDS011;62796;42.654;23.316;2023-09-08T09:45:00;6.40;;;4.10;;
29196;SDS011;62796;42.654;23.316;2023-09-08T09:47:25;4.60;;;3.90;;
29196;SDS011;62796;42.654;23.316;2023-09-08T09:49:51;5.85;;;4.07;;
29196;SDS011;62796;42.654;23.316;2023-09-08T09:52:21;5.85;;;3.85;;
29196;SDS011;62796;42.654;23.316;2023-09-08T09:54:48;5.38;;;4.35;;
29196;SDS011;62796;42.654;23.316;2023-09-08T09:57:16;9.05;;;4.18;;
29196;SDS011;62796;42.654;23.316;2023-09-08T09:59:45;9.90;;;6.30;;
29196;SDS011;62796;42.654;23.316;2023-09-08T10:02:13;10.50;;;7.57;;
29196;SDS011;62796;42.654;23.316;2023-09-08T10:04:40;10.63;;;3.75;;
29196;SDS011;62796;42.654;23.316;2023-09-08T10:07:06;5.68;;;4.38;;
29196;SDS011;62796;42.654;23.316;2023-09-08T10:09:32;4.85;;;4.05;;
29196;SDS011;62796;42.654;23.316;2023-09-08T10:11:58;6.68;;;3.78;;
29196;SDS011;62796;42.654;23.316;2023-09-08T10:14:28;6.45;;;3.90;;
29196;SDS011;62796;42.654;23.316;2023-09-08T10:16:57;4.63;;;3.63;;
29196;SDS011;62796;42.654;23.316;2023-09-08T10:19:24;5.95;;;4.00;;
29196;SDS011;62796;42.654;23.316;2023-09-08T10:21:51;5.65;;;3.70;;
29196;SDS011;62796;42.654;23.316;2023-09-08T10:24:41;4.38;;;3.97;;
29196;SDS011;62796;42.654;23.316;2023-09-08T10:27:10;4.97;;;3.95;;
29196;SDS011;62796;42.654;23.316;2023-09-08T10:29:37;6.53;;;4.63;;
29196;SDS011;62796;42.654;23.316;2023-09-08T10:32:05;6.82;;;4.60;;
29196;SDS011;62796;42.654;23.316;2023-09-08T10:34:33;6.32;;;4.32;;
29196;SDS011;62796;42.654;23.316;2023-09-08T10:37:00;6.40;;;4.55;;
29196;SDS011;62796;42.654;23.316;2023-09-08T10:39:33;7.68;;;4.03;;
29196;SDS011;62796;42.654;23.316;2023-09-08T10:48:17;8.57;;;3.90;;
29196;SDS011;62796;42.654;23.316;2023-09-08T10:50:45;7.75;;;4.07;;
29196;SDS011;62796;42.654;23.316;2023-09-08T10:55:48;4.88;;;3.83;;
29196;SDS011;62796;42.654;23.316;2023-09-08T10:58:28;6.50;;;4.13;;
29196;SDS011;62796;42.654;23.316;2023-09-08T11:00:58;10.55;;;4.57;;
29196;SDS011;62796;42.654;23.316;2023-09-08T11:06:07;8.02;;;4.32;;
29196;SDS011;62796;42.654;23.316;2023-09-08T11:08:33;9.82;;;5.05;;
29196;SDS011;62796;42.654;23.316;2023-09-08T11:11:02;10.60;;;6.13;;
29196;SDS011;62796;42.654;23.316;2023-09-08T11:13:28;6.57;;;4.10;;
29196;SDS011;62796;42.654;23.316;2023-09-08T11:15:54;10.57;;;4.22;;
29196;SDS011;62796;42.654;23.316;2023-09-08T11:18:29;8.52;;;4.60;;
29196;SDS011;62796;42.654;23.316;2023-09-08T11:20:55;8.55;;;4.63;;
29196;SDS011;62796;42.654;23.316;2023-09-08T11:23:23;10.20;;;4.35;;
29196;SDS011;62796;42.654;23.316;2023-09-08T11:25:49;10.50;;;4.70;;
29196;SDS011;62796;42.654;23.316;2023-09-08T11:28:16;6.53;;;4.50;;
29196;SDS011;62796;42.654;23.316;2023-09-08T11:30:48;10.45;;;4.75;;
29196;SDS011;62796;42.654;23.316;2023-09-08T11:33:18;13.48;;;5.00;;
29196;SDS011;62796;42.654;23.316;2023-09-08T11:35:48;8.27;;;4.70;;
29196;SDS011;62796;42.654;23.316;2023-09-08T11:38:14;7.47;;;4.32;;
29196;SDS011;62796;42.654;23.316;2023-09-08T11:40:40;10.65;;;4.90;;
29196;SDS011;62796;42.654;23.316;2023-09-08T11:43:06;6.53;;;4.18;;
29196;SDS011;62796;42.654;23.316;2023-09-08T11:45:35;7.47;;;4.22;;
29196;SDS011;62796;42.654;23.316;2023-09-08T11:48:01;13.63;;;5.13;;
29196;SDS011;62796;42.654;23.316;2023-09-08T11:50:29;7.03;;;4.32;;
29196;SDS011;62796;42.654;23.316;2023-09-08T11:52:55;8.23;;;4.28;;
29196;SDS011;62796;42.654;23.316;2023-09-08T11:55:21;8.05;;;4.40;;
29196;SDS011;62796;42.654;23.316;2023-09-08T11:57:48;5.55;;;4.55;;
29196;SDS011;62796;42.654;23.316;2023-09-08T12:00:16;11.75;;;5.00;;
29196;SDS011;62796;42.654;23.316;2023-09-08T12:02:44;9.35;;;4.60;;
29196;SDS011;62796;42.654;23.316;2023-09-08T12:05:11;7.00;;;4.57;;
29196;SDS011;62796;42.654;23.316;2023-09-08T12:07:38;9.20;;;4.40;;
29196;SDS011;62796;42.654;23.316;2023-09-08T12:10:08;10.30;;;4.80;;
29196;SDS011;62796;42.654;23.316;2023-09-08T12:12:41;8.27;;;4.30;;
29196;SDS011;62796;42.654;23.316;2023-09-08T12:15:07;6.13;;;4.20;;
29196;SDS011;62796;42.654;23.316;2023-09-08T12:17:32;5.72;;;4.00;;
29196;SDS011;62796;42.654;23.316;2023-09-08T12:19:58;8.95;;;4.40;;
29196;SDS011;62796;42.654;23.316;2023-09-08T12:22:23;4.75;;;3.88;;
29196;SDS011;62796;42.654;23.316;2023-09-08T12:27:21;7.63;;;4.35;;
29196;SDS011;62796;42.654;23.316;2023-09-08T12:30:06;6.38;;;3.80;;
29196;SDS011;62796;42.654;23.316;2023-09-08T12:32:33;9.45;;;4.07;;
29196;SDS011;62796;42.654;23.316;2023-09-08T12:34:59;6.95;;;4.03;;
29196;SDS011;62796;42.654;23.316;2023-09-08T12:37:28;7.00;;;4.20;;
29196;SDS011;62796;42.654;23.316;2023-09-08T12:39:54;6.40;;;4.30;;
29196;SDS011;62796;42.654;23.316;2023-09-08T12:42:19;6.30;;;4.05;;
29196;SDS011;62796;42.654;23.316;2023-09-08T12:44:45;6.90;;;4.18;;
29196;SDS011;62796;42.654;23.316;2023-09-08T12:47:12;9.32;;;4.25;;
29196;SDS011;62796;42.654;23.316;2023-09-08T12:49:37;4.97;;;3.90;;
29196;SDS011;62796;42.654;23.316;2023-09-08T12:52:03;6.88;;;4.47;;
29196;SDS011;62796;42.654;23.316;2023-09-08T12:54:28;5.82;;;3.67;;
29196;SDS011;62796;42.654;23.316;2023-09-08T12:56:54;6.53;;;4.13;;
29196;SDS011;62796;42.654;23.316;2023-09-08T12:59:19;7.22;;;3.97;;
29196;SDS011;62796;42.654;23.316;2023-09-08T13:01:45;7.13;;;4.00;;
29196;SDS011;62796;42.654;23.316;2023-09-08T13:04:10;6.65;;;5.00;;
29196;SDS011;62796;42.654;23.316;2023-09-08T13:06:35;5.45;;;4.10;;
29196;SDS011;62796;42.654;23.316;2023-09-08T13:09:01;5.38;;;4.28;;
29196;SDS011;62796;42.654;23.316;2023-09-08T13:11:26;5.95;;;4.32;;
29196;SDS011;62796;42.654;23.316;2023-09-08T13:13:53;7.18;;;4.10;;
29196;SDS011;62796;42.654;23.316;2023-09-08T13:16:18;5.80;;;4.13;;
29196;SDS011;62796;42.654;23.316;2023-09-08T13:18:44;7.47;;;4.03;;
29196;SDS011;62796;42.654;23.316;2023-09-08T13:21:10;5.57;;;4.25;;
29196;SDS011;62796;42.654;23.316;2023-09-08T13:23:36;6.57;;;4.10;;
29196;SDS011;62796;42.654;23.316;2023-09-08T13:26:01;10.48;;;4.18;;
29196;SDS011;62796;42.654;23.316;2023-09-08T13:28:27;7.65;;;4.55;;
29196;SDS011;62796;42.654;23.316;2023-09-08T13:30:52;7.07;;;4.28;;
29196;SDS011;62796;42.654;23.316;2023-09-08T13:33:17;10.68;;;4.25;;
29196;SDS011;62796;42.654;23.316;2023-09-08T13:35:43;10.15;;;4.38;;
29196;SDS011;62796;42.654;23.316;2023-09-08T13:38:08;6.57;;;4.28;;
29196;SDS011;62796;42.654;23.316;2023-09-08T13:40:34;12.10;;;4.10;;
29196;SDS011;62796;42.654;23.316;2023-09-08T13:42:59;7.20;;;3.88;;
29196;SDS011;62796;42.654;23.316;2023-09-08T13:45:25;8.10;;;4.13;;
29196;SDS011;62796;42.654;23.316;2023-09-08T13:47:51;8.18;;;4.18;;
29196;SDS011;62796;42.654;23.316;2023-09-08T13:50:16;5.88;;;3.92;;
29196;SDS011;62796;42.654;23.316;2023-09-08T13:52:42;5.28;;;4.03;;
29196;SDS011;62796;42.654;23.316;2023-09-08T13:55:08;7.07;;;4.45;;
29196;SDS011;62796;42.654;23.316;2023-09-08T13:57:35;4.72;;;3.97;;
29196;SDS011;62796;42.654;23.316;2023-09-08T14:00:01;5.60;;;3.92;;
29196;SDS011;62796;42.654;23.316;2023-09-08T14:02:28;5.72;;;4.57;;
29196;SDS011;62796;42.654;23.316;2023-09-08T14:04:56;6.43;;;4.72;;
29196;SDS011;62796;42.654;23.316;2023-09-08T14:07:21;7.72;;;4.00;;
29196;SDS011;62796;42.654;23.316;2023-09-08T14:09:47;7.85;;;4.75;;
29196;SDS011;62796;42.654;23.316;2023-09-08T14:12:12;6.70;;;4.18;;
29196;SDS011;62796;42.654;23.316;2023-09-08T14:14:37;6.60;;;4.05;;
29196;SDS011;62796;42.654;23.316;2023-09-08T14:17:03;10.32;;;3.90;;
29196;SDS011;62796;42.654;23.316;2023-09-08T14:19:28;6.53;;;4.35;;
29196;SDS011;62796;42.654;23.316;2023-09-08T14:21:54;6.97;;;4.43;;
29196;SDS011;62796;42.654;23.316;2023-09-08T14:24:19;6.30;;;4.20;;
29196;SDS011;62796;42.654;23.316;2023-09-08T14:26:44;6.40;;;4.43;;
29196;SDS011;62796;42.654;23.316;2023-09-08T14:29:10;5.60;;;4.10;;
29196;SDS011;62796;42.654;23.316;2023-09-08T14:31:35;9.35;;;4.22;;
29196;SDS011;62796;42.654;23.316;2023-09-08T14:34:01;5.88;;;4.63;;
29196;SDS011;62796;42.654;23.316;2023-09-08T14:36:26;8.27;;;4.70;;
29196;SDS011;62796;42.654;23.316;2023-09-08T14:38:51;6.45;;;4.22;;
29196;SDS011;62796;42.654;23.316;2023-09-08T14:41:17;6.00;;;4.20;;
29196;SDS011;62796;42.654;23.316;2023-09-08T14:43:43;6.32;;;4.50;;